Time;durP1;ratioP1;P1;durP2;ratioP2;P2;SDS_P1;SDS_P2;PMS_P1;PMS_P2;Temp;Humidity;BMP_temperature;BMP_pressure;BME280_temperature;BME280_humidity;BME280_pressure;Samples;Min_cycle;Max_cycle;Signal;HPM_P1;HPM_P2
2022/09/22 00:02:18;;;;;;;9.03;4.57;;;;;;;;;;6101878;23;20173;-89
2022/09/22 00:05:34;;;;;;;11.40;5.17;;;;;;;;;;6109581;23;20169;-90
2022/09/22 00:08:40;;;;;;;9.23;5.03;;;;;;;;;;6106649;23;20808;-89
2022/09/22 00:11:47;;;;;;;8.53;5.00;;;;;;;;;;6101559;23;20170;-90
2022/09/22 00:14:52;;;;;;;11.60;5.23;;;;;;;;;;6102196;23;20696;-89
2022/09/22 00:17:57;;;;;;;10.83;4.93;;;;;;;;;;6100721;23;20190;-89
2022/09/22 00:21:08;;;;;;;11.47;4.63;;;;;;;;;;6101721;23;20178;-90
2022/09/22 00:24:12;;;;;;;6.93;4.20;;;;;;;;;;6101930;23;20239;-89
2022/09/22 00:27:24;;;;;;;11.33;4.73;;;;;;;;;;6104743;23;20329;-90
2022/09/22 00:30:30;;;;;;;8.20;4.20;;;;;;;;;;6103090;23;20169;-89
2022/09/22 00:33:36;;;;;;;18.77;5.00;;;;;;;;;;6100627;23;20499;-88
2022/09/22 00:36:43;;;;;;;38.87;4.83;;;;;;;;;;6101448;23;20174;-89
2022/09/22 00:39:48;;;;;;;16.13;4.97;;;;;;;;;;6100294;23;20170;-90
2022/09/22 00:42:53;;;;;;;8.37;4.30;;;;;;;;;;6100364;23;20162;-89
2022/09/22 00:45:59;;;;;;;31.17;4.93;;;;;;;;;;6101677;23;20229;-89
2022/09/22 00:49:07;;;;;;;16.40;5.07;;;;;;;;;;6102727;23;20197;-90
2022/09/22 00:52:15;;;;;;;8.57;4.30;;;;;;;;;;6099604;23;20177;-89
2022/09/22 00:55:22;;;;;;;8.63;4.70;;;;;;;;;;6100500;23;20503;-90
2022/09/22 00:58:31;;;;;;;6.83;4.27;;;;;;;;;;6099816;23;20174;-88
2022/09/22 01:01:38;;;;;;;9.43;4.47;;;;;;;;;;6100794;23;20185;-91
2022/09/22 01:04:43;;;;;;;10.67;4.27;;;;;;;;;;6099727;23;20177;-88
2022/09/22 01:07:50;;;;;;;19.80;4.57;;;;;;;;;;6100543;23;20197;-92
2022/09/22 01:10:56;;;;;;;32.90;5.43;;;;;;;;;;6099172;23;20201;-89
2022/09/22 01:14:04;;;;;;;8.10;4.50;;;;;;;;;;6099561;23;20169;-89
2022/09/22 01:17:13;;;;;;;7.53;4.37;;;;;;;;;;6100133;23;20180;-90
2022/09/22 01:20:45;;;;;;;11.03;4.77;;;;;;;;;;6100089;23;20237;-89
2022/09/22 01:24:16;;;;;;;12.00;4.30;;;;;;;;;;6055041;23;20197;-90
2022/09/22 01:27:33;;;;;;;8.33;4.57;;;;;;;;;;6099945;23;20192;-89
2022/09/22 01:30:42;;;;;;;7.40;4.47;;;;;;;;;;6099277;23;20290;-90
2022/09/22 01:33:49;;;;;;;23.20;5.23;;;;;;;;;;6098960;23;20170;-88
2022/09/22 01:37:10;;;;;;;11.97;4.63;;;;;;;;;;6099906;23;20173;-91
2022/09/22 01:40:16;;;;;;;8.70;4.63;;;;;;;;;;6099673;23;20170;-89
2022/09/22 01:43:25;;;;;;;9.10;4.13;;;;;;;;;;6100109;23;20173;-91
2022/09/22 01:46:34;;;;;;;8.73;4.00;;;;;;;;;;6100105;23;20178;-89
2022/09/22 01:49:42;;;;;;;28.37;4.53;;;;;;;;;;6100893;23;20201;-88
2022/09/22 01:52:48;;;;;;;8.13;3.87;;;;;;;;;;6099994;23;20232;-87
2022/09/22 01:55:58;;;;;;;8.73;4.00;;;;;;;;;;6100841;23;20174;-89
2022/09/22 01:59:05;;;;;;;5.73;3.50;;;;;;;;;;6100633;23;20177;-91
2022/09/22 02:02:16;;;;;;;8.93;3.20;;;;;;;;;;6100109;23;20502;-87
2022/09/22 02:05:23;;;;;;;7.53;3.77;;;;;;;;;;6098597;23;20238;-87
2022/09/22 02:08:32;;;;;;;5.17;3.30;;;;;;;;;;6099419;23;20193;-88
2022/09/22 02:11:36;;;;;;;6.23;3.43;;;;;;;;;;6100059;23;20627;-89
2022/09/22 02:14:41;;;;;;;22.57;4.03;;;;;;;;;;6099607;23;20182;-89
2022/09/22 02:17:48;;;;;;;9.57;3.77;;;;;;;;;;6100054;23;20322;-88
2022/09/22 02:20:53;;;;;;;13.83;3.70;;;;;;;;;;6100847;23;20177;-89
2022/09/22 02:23:59;;;;;;;7.60;3.53;;;;;;;;;;6102128;23;20611;-90
2022/09/22 02:27:05;;;;;;;7.50;3.60;;;;;;;;;;6101169;23;20170;-88
2022/09/22 02:30:11;;;;;;;20.23;4.03;;;;;;;;;;6100916;23;20213;-90
2022/09/22 02:33:18;;;;;;;7.17;3.77;;;;;;;;;;6100090;23;20687;-90
2022/09/22 02:36:38;;;;;;;11.30;4.40;;;;;;;;;;6098777;23;20170;-88
2022/09/22 02:39:48;;;;;;;9.77;4.37;;;;;;;;;;6099715;23;20238;-88
2022/09/22 02:42:56;;;;;;;16.40;4.10;;;;;;;;;;6100170;23;20451;-88
2022/09/22 02:46:05;;;;;;;10.47;4.40;;;;;;;;;;6100698;23;20170;-89
2022/09/22 02:49:14;;;;;;;8.20;4.20;;;;;;;;;;6100635;23;20757;-88
2022/09/22 02:52:20;;;;;;;10.97;3.90;;;;;;;;;;6101368;23;20170;-89
2022/09/22 02:55:24;;;;;;;10.37;3.60;;;;;;;;;;6100296;23;20453;-89
2022/09/22 02:58:30;;;;;;;9.03;3.93;;;;;;;;;;6102004;23;20738;-89
2022/09/22 03:01:34;;;;;;;6.87;3.50;;;;;;;;;;6101148;23;20567;-88
2022/09/22 03:04:41;;;;;;;9.97;3.47;;;;;;;;;;6084611;23;20174;-89
2022/09/22 03:07:46;;;;;;;28.60;4.00;;;;;;;;;;6100037;23;20269;-89
2022/09/22 03:10:51;;;;;;;10.30;3.30;;;;;;;;;;6101552;23;20190;-90
2022/09/22 03:13:56;;;;;;;9.60;3.23;;;;;;;;;;6101866;23;20173;-91
2022/09/22 03:17:01;;;;;;;7.90;3.37;;;;;;;;;;6102157;23;20205;-89
2022/09/22 03:20:11;;;;;;;12.73;3.33;;;;;;;;;;6103122;23;20174;-90
2022/09/22 03:23:15;;;;;;;13.53;3.40;;;;;;;;;;6102486;23;20373;-89
2022/09/22 03:26:20;;;;;;;8.33;3.37;;;;;;;;;;6102212;23;20178;-88
2022/09/22 03:29:26;;;;;;;12.10;3.27;;;;;;;;;;6102127;23;20190;-90
2022/09/22 03:32:31;;;;;;;14.87;3.47;;;;;;;;;;6102952;23;20296;-88
2022/09/22 03:35:37;;;;;;;15.30;3.50;;;;;;;;;;6101396;23;20228;-88
2022/09/22 03:38:43;;;;;;;12.07;3.77;;;;;;;;;;6103171;23;20238;-90
2022/09/22 03:41:48;;;;;;;8.03;3.87;;;;;;;;;;6100608;23;20533;-86
2022/09/22 03:44:53;;;;;;;8.00;3.47;;;;;;;;;;6101933;23;20173;-90
2022/09/22 03:47:58;;;;;;;12.70;4.20;;;;;;;;;;6101245;23;20177;-90
2022/09/22 03:51:04;;;;;;;9.97;3.80;;;;;;;;;;6100927;23;20198;-89
2022/09/22 03:54:11;;;;;;;20.00;4.03;;;;;;;;;;6099872;23;20249;-89
2022/09/22 03:57:16;;;;;;;65.70;5.33;;;;;;;;;;6099625;23;20177;-90
2022/09/22 04:00:22;;;;;;;84.60;5.80;;;;;;;;;;6101548;23;20158;-91
2022/09/22 04:03:27;;;;;;;6.50;3.87;;;;;;;;;;6102063;23;20233;-90
2022/09/22 04:06:35;;;;;;;16.10;4.60;;;;;;;;;;6101067;23;20177;-88
2022/09/22 04:09:40;;;;;;;10.60;4.37;;;;;;;;;;6102401;23;20698;-89
2022/09/22 04:12:45;;;;;;;44.47;4.70;;;;;;;;;;6102210;23;20185;-91
2022/09/22 04:15:51;;;;;;;17.43;4.10;;;;;;;;;;6101264;23;20270;-90
2022/09/22 04:18:56;;;;;;;17.93;4.13;;;;;;;;;;6102340;23;20221;-89
2022/09/22 04:22:03;;;;;;;7.07;3.70;;;;;;;;;;6103259;23;20169;-88
2022/09/22 04:25:12;;;;;;;10.90;3.80;;;;;;;;;;6102788;23;20174;-88
2022/09/22 04:28:17;;;;;;;9.97;3.77;;;;;;;;;;6100898;23;20166;-88
2022/09/22 04:31:22;;;;;;;15.03;4.07;;;;;;;;;;6098724;23;20220;-89
2022/09/22 04:34:27;;;;;;;6.83;4.00;;;;;;;;;;6102162;23;20173;-88
2022/09/22 04:37:34;;;;;;;14.37;4.30;;;;;;;;;;6102821;23;20174;-89
2022/09/22 04:40:39;;;;;;;28.37;4.67;;;;;;;;;;6103183;23;20177;-88
2022/09/22 04:43:44;;;;;;;7.33;4.77;;;;;;;;;;6103430;23;20629;-88
2022/09/22 04:46:52;;;;;;;11.90;4.10;;;;;;;;;;6103121;23;20225;-89
2022/09/22 04:49:57;;;;;;;27.27;4.43;;;;;;;;;;6103161;23;20173;-89
2022/09/22 04:53:03;;;;;;;16.17;4.43;;;;;;;;;;6101388;23;20169;-88
2022/09/22 04:56:08;;;;;;;17.13;4.13;;;;;;;;;;6100068;23;20182;-89
2022/09/22 04:59:13;;;;;;;6.67;4.07;;;;;;;;;;6102414;23;20209;-87
2022/09/22 05:02:18;;;;;;;10.00;4.43;;;;;;;;;;6101341;23;20257;-89
2022/09/22 05:05:26;;;;;;;12.40;3.80;;;;;;;;;;6103125;23;20630;-88
2022/09/22 05:08:33;;;;;;;11.90;4.17;;;;;;;;;;6101388;23;20165;-89
2022/09/22 05:11:38;;;;;;;20.43;4.20;;;;;;;;;;6101084;23;20177;-88
2022/09/22 05:14:43;;;;;;;12.77;4.20;;;;;;;;;;6102643;23;20187;-89
2022/09/22 05:17:52;;;;;;;7.33;4.17;;;;;;;;;;6103383;23;20197;-89
2022/09/22 05:20:57;;;;;;;10.53;4.23;;;;;;;;;;6085274;23;20173;-88
2022/09/22 05:24:04;;;;;;;15.77;4.50;;;;;;;;;;6085313;23;20259;-89
2022/09/22 05:27:10;;;;;;;18.13;4.70;;;;;;;;;;6090178;23;20169;-86
2022/09/22 05:30:15;;;;;;;9.97;4.07;;;;;;;;;;6086455;23;20185;-87
2022/09/22 05:33:20;;;;;;;9.37;4.27;;;;;;;;;;6087570;23;20230;-89
2022/09/22 05:36:26;;;;;;;15.07;4.63;;;;;;;;;;6089749;23;20177;-88
2022/09/22 05:39:32;;;;;;;8.67;4.63;;;;;;;;;;6089152;23;20272;-87
2022/09/22 05:42:40;;;;;;;19.23;4.63;;;;;;;;;;6084960;23;20186;-88
2022/09/22 05:45:45;;;;;;;9.90;5.07;;;;;;;;;;6086986;23;20285;-88
2022/09/22 05:48:53;;;;;;;13.57;5.20;;;;;;;;;;6084105;23;20666;-88
2022/09/22 05:51:58;;;;;;;38.00;5.40;;;;;;;;;;6086285;23;20575;-89
2022/09/22 05:55:05;;;;;;;51.83;6.23;;;;;;;;;;6084844;23;20217;-88
2022/09/22 05:58:11;;;;;;;13.53;6.07;;;;;;;;;;6086576;23;20162;-88
2022/09/22 06:01:17;;;;;;;15.17;5.67;;;;;;;;;;6085902;23;20181;-88
2022/09/22 06:04:29;;;;;;;11.57;6.13;;;;;;;;;;6092066;23;20182;-88
2022/09/22 06:07:34;;;;;;;22.17;5.33;;;;;;;;;;6089398;23;20170;-87
2022/09/22 06:10:44;;;;;;;16.17;5.07;;;;;;;;;;6085067;23;20182;-86
2022/09/22 06:13:50;;;;;;;8.20;4.93;;;;;;;;;;6087221;23;20221;-88
2022/09/22 06:16:56;;;;;;;38.93;5.90;;;;;;;;;;6087414;23;20294;-89
2022/09/22 06:20:01;;;;;;;28.87;4.87;;;;;;;;;;6088788;23;20220;-88
2022/09/22 06:23:07;;;;;;;18.63;5.10;;;;;;;;;;6086058;23;20189;-88
2022/09/22 06:26:15;;;;;;;23.27;4.33;;;;;;;;;;6088948;23;20621;-88
2022/09/22 06:29:20;;;;;;;8.50;4.10;;;;;;;;;;6090543;23;20294;-87
2022/09/22 06:32:25;;;;;;;12.47;4.00;;;;;;;;;;6086786;23;20169;-89
2022/09/22 06:35:35;;;;;;;7.47;3.97;;;;;;;;;;6091986;23;20247;-88
2022/09/22 06:38:40;;;;;;;8.00;3.63;;;;;;;;;;6089551;23;20166;-89
2022/09/22 06:41:48;;;;;;;6.43;3.27;;;;;;;;;;6092396;23;20182;-90
2022/09/22 06:44:54;;;;;;;5.80;3.07;;;;;;;;;;6087657;23;20170;-89
2022/09/22 06:48:01;;;;;;;5.13;3.00;;;;;;;;;;6088305;23;20206;-89
2022/09/22 06:51:06;;;;;;;4.90;3.43;;;;;;;;;;6092663;23;20263;-89
2022/09/22 06:54:12;;;;;;;6.63;2.67;;;;;;;;;;6086971;23;20173;-88
2022/09/22 06:57:18;;;;;;;7.03;3.00;;;;;;;;;;6087782;23;20170;-90
2022/09/22 07:00:30;;;;;;;5.03;3.40;;;;;;;;;;6085319;23;20193;-90
2022/09/22 07:03:41;;;;;;;5.40;3.30;;;;;;;;;;6085818;23;20210;-89
2022/09/22 07:06:49;;;;;;;5.03;3.13;;;;;;;;;;6089742;23;20170;-87
2022/09/22 07:09:54;;;;;;;5.63;3.47;;;;;;;;;;6087293;23;20166;-87
2022/09/22 07:13:02;;;;;;;5.50;3.53;;;;;;;;;;6087168;23;20173;-88
2022/09/22 07:16:08;;;;;;;7.40;3.57;;;;;;;;;;6089632;23;20178;-87
2022/09/22 07:19:14;;;;;;;4.50;3.10;;;;;;;;;;6102681;23;20209;-88
2022/09/22 07:22:19;;;;;;;5.70;3.30;;;;;;;;;;6107096;23;20239;-88
2022/09/22 07:28:49;;;;;;;4.67;2.93;;;;;;;;;;6107890;23;20621;-88
2022/09/22 07:31:55;;;;;;;6.32;3.20;;;;;;;;;;6091366;23;20214;-88
2022/09/22 07:35:03;;;;;;;4.13;2.83;;;;;;;;;;6108924;23;20225;-87
2022/09/22 07:38:07;;;;;;;4.37;2.77;;;;;;;;;;6107960;23;20218;-88
2022/09/22 07:41:14;;;;;;;4.97;3.20;;;;;;;;;;6107850;23;20197;-89
2022/09/22 07:51:08;;;;;;;3.80;2.80;;;;;;;;;;6103692;23;20210;-89
2022/09/22 07:54:14;;;;;;;7.13;3.80;;;;;;;;;;6103431;23;20241;-89
2022/09/22 07:57:19;;;;;;;5.30;3.65;;;;;;;;;;6106161;23;20558;-88
2022/09/22 08:00:26;;;;;;;6.93;3.85;;;;;;;;;;6104550;23;20264;-87
2022/09/22 08:03:32;;;;;;;8.25;4.25;;;;;;;;;;6106417;23;20178;-90
2022/09/22 08:06:37;;;;;;;8.85;4.75;;;;;;;;;;6104543;23;20181;-87
2022/09/22 08:09:42;;;;;;;11.48;5.18;;;;;;;;;;6104735;23;20307;-89
2022/09/22 08:12:48;;;;;;;8.80;5.25;;;;;;;;;;6103971;23;20735;-88
2022/09/22 08:15:55;;;;;;;8.20;4.75;;;;;;;;;;6102609;23;20177;-89
2022/09/22 08:19:01;;;;;;;8.95;5.43;;;;;;;;;;6102627;23;20657;-88
2022/09/22 08:22:07;;;;;;;12.27;5.30;;;;;;;;;;6104094;23;20266;-90
2022/09/22 08:25:12;;;;;;;8.77;4.57;;;;;;;;;;6105122;23;20206;-89
2022/09/22 08:28:17;;;;;;;7.93;4.45;;;;;;;;;;6103730;23;20174;-88
2022/09/22 08:31:24;;;;;;;7.18;4.03;;;;;;;;;;6104348;23;20170;-89
2022/09/22 08:34:30;;;;;;;6.15;3.90;;;;;;;;;;6104463;23;20294;-89
2022/09/22 08:37:35;;;;;;;9.85;3.92;;;;;;;;;;6106260;23;20197;-88
2022/09/22 08:40:44;;;;;;;6.85;3.90;;;;;;;;;;6104634;23;20677;-88
2022/09/22 08:43:51;;;;;;;5.63;3.75;;;;;;;;;;6103115;23;20169;-90
2022/09/22 08:47:01;;;;;;;7.15;3.88;;;;;;;;;;6104408;23;20178;-90
2022/09/22 08:53:42;;;;;;;4.28;2.80;;;;;;;;;;6102881;23;20614;-89
2022/09/22 08:56:55;;;;;;;5.28;2.70;;;;;;;;;;6105050;23;20298;-89
2022/09/22 09:00:04;;;;;;;3.60;2.17;;;;;;;;;;6110741;23;20255;-90
2022/09/22 09:03:21;;;;;;;5.97;2.50;;;;;;;;;;6101190;23;20174;-91
2022/09/22 09:06:31;;;;;;;4.30;2.38;;;;;;;;;;6104303;23;20174;-90
2022/09/22 09:09:42;;;;;;;6.47;2.47;;;;;;;;;;6104118;23;20185;-92
2022/09/22 09:13:01;;;;;;;3.47;2.30;;;;;;;;;;6104046;23;20174;-90
2022/09/22 09:16:15;;;;;;;3.67;1.80;;;;;;;;;;6103438;23;20169;-91
2022/09/22 09:19:28;;;;;;;9.88;2.10;;;;;;;;;;6107677;23;20221;-90
2022/09/22 09:22:39;;;;;;;3.95;1.90;;;;;;;;;;6105484;23;20185;-91
2022/09/22 09:25:44;;;;;;;3.55;1.70;;;;;;;;;;6104883;23;20282;-91
2022/09/22 09:28:54;;;;;;;3.42;1.92;;;;;;;;;;6105313;23;20173;-92
2022/09/22 09:32:01;;;;;;;3.33;1.60;;;;;;;;;;6105231;23;20162;-91
2022/09/22 09:35:13;;;;;;;3.22;1.50;;;;;;;;;;6105793;23;20169;-90
2022/09/22 09:38:19;;;;;;;2.08;1.40;;;;;;;;;;6104651;23;20197;-92
2022/09/22 09:41:25;;;;;;;1.95;1.50;;;;;;;;;;6106779;23;20631;-91
2022/09/22 09:44:32;;;;;;;1.90;1.52;;;;;;;;;;6104823;23;20217;-92
2022/09/22 09:48:14;;;;;;;3.10;1.20;;;;;;;;;;6103377;23;20301;-91
2022/09/22 09:51:22;;;;;;;2.35;1.55;;;;;;;;;;6108308;23;20197;-89
2022/09/22 09:54:27;;;;;;;3.10;1.73;;;;;;;;;;6104511;23;20277;-92
2022/09/22 09:57:32;;;;;;;3.90;1.65;;;;;;;;;;6109885;23;20177;-90
2022/09/22 10:00:51;;;;;;;3.55;1.70;;;;;;;;;;6105320;23;20241;-89
2022/09/22 10:03:57;;;;;;;3.95;1.67;;;;;;;;;;6108122;23;20190;-90
2022/09/22 10:07:20;;;;;;;1.58;1.40;;;;;;;;;;6113140;23;20182;-88
2022/09/22 10:10:35;;;;;;;6.18;1.42;;;;;;;;;;6111911;23;20201;-89
2022/09/22 10:13:41;;;;;;;4.32;1.67;;;;;;;;;;6108642;23;20174;-90
2022/09/22 10:16:51;;;;;;;2.83;1.58;;;;;;;;;;6106126;23;20262;-89
2022/09/22 10:20:15;;;;;;;6.00;1.92;;;;;;;;;;6108022;23;20189;-91
2022/09/22 10:23:21;;;;;;;3.15;1.48;;;;;;;;;;6108897;23;20208;-88
2022/09/22 10:26:29;;;;;;;1.90;1.48;;;;;;;;;;6105262;23;20286;-88
2022/09/22 10:29:34;;;;;;;4.72;1.80;;;;;;;;;;6106104;23;20274;-90
2022/09/22 10:32:39;;;;;;;3.42;1.73;;;;;;;;;;6105824;23;20182;-89
2022/09/22 10:35:46;;;;;;;2.05;1.40;;;;;;;;;;6108060;23;20177;-88
2022/09/22 10:38:56;;;;;;;3.58;1.83;;;;;;;;;;6107015;23;20174;-89
2022/09/22 10:42:05;;;;;;;2.15;1.50;;;;;;;;;;6106871;23;20238;-89
2022/09/22 10:45:12;;;;;;;3.63;1.63;;;;;;;;;;6104863;23;20425;-89
2022/09/22 10:48:22;;;;;;;3.80;1.65;;;;;;;;;;6106786;23;20174;-88
2022/09/22 10:51:35;;;;;;;4.03;2.00;;;;;;;;;;6105737;23;20200;-89
2022/09/22 10:54:50;;;;;;;2.83;1.90;;;;;;;;;;6106248;23;20189;-90
2022/09/22 10:58:10;;;;;;;2.58;1.88;;;;;;;;;;6106420;23;20260;-89
2022/09/22 11:01:25;;;;;;;3.38;1.60;;;;;;;;;;6105989;23;20178;-89
2022/09/22 11:04:42;;;;;;;2.40;1.65;;;;;;;;;;6106066;23;20173;-89
2022/09/22 11:14:59;;;;;;;11.50;1.77;;;;;;;;;;6109352;23;20234;-88
2022/09/22 11:18:25;;;;;;;6.15;3.45;;;;;;;;;;6106367;23;20190;-89
2022/09/22 11:21:36;;;;;;;5.30;1.70;;;;;;;;;;6088174;23;20178;-89
2022/09/22 11:24:47;;;;;;;2.90;1.73;;;;;;;;;;6087939;23;20165;-89
2022/09/22 11:28:00;;;;;;;2.60;1.70;;;;;;;;;;6089237;23;20186;-88
2022/09/22 11:31:08;;;;;;;3.42;1.70;;;;;;;;;;6088861;23;20277;-90
2022/09/22 11:34:41;;;;;;;2.78;1.67;;;;;;;;;;6089670;23;20177;-90
2022/09/22 11:37:52;;;;;;;5.32;1.92;;;;;;;;;;6061800;23;20190;-90
2022/09/22 11:41:15;;;;;;;2.50;1.60;;;;;;;;;;6087658;23;20169;-90
2022/09/22 11:44:39;;;;;;;2.65;1.63;;;;;;;;;;6088816;23;20264;-87
2022/09/22 11:47:53;;;;;;;3.22;1.85;;;;;;;;;;6087615;23;20174;-89
2022/09/22 11:51:09;;;;;;;4.35;2.03;;;;;;;;;;6088071;23;20193;-89
2022/09/22 11:54:21;;;;;;;3.70;2.10;;;;;;;;;;6089811;23;20166;-90
2022/09/22 11:57:30;;;;;;;3.35;1.85;;;;;;;;;;6088605;23;20174;-88
2022/09/22 12:00:38;;;;;;;4.03;1.83;;;;;;;;;;6091437;23;20218;-90
2022/09/22 12:03:47;;;;;;;5.28;2.03;;;;;;;;;;6087395;23;20182;-86
2022/09/22 12:06:55;;;;;;;4.07;1.77;;;;;;;;;;6088206;23;20173;-89
2022/09/22 12:10:02;;;;;;;3.03;1.55;;;;;;;;;;6088921;23;20253;-89
2022/09/22 12:13:11;;;;;;;3.15;1.90;;;;;;;;;;6093665;23;20550;-88
2022/09/22 12:16:21;;;;;;;2.72;1.50;;;;;;;;;;6093350;23;20173;-91
2022/09/22 12:19:33;;;;;;;3.55;1.92;;;;;;;;;;6101191;23;20259;-88
2022/09/22 12:22:51;;;;;;;2.90;1.58;;;;;;;;;;6107864;23;20170;-88
2022/09/22 12:25:57;;;;;;;3.85;1.35;;;;;;;;;;6107174;23;20558;-90
2022/09/22 12:29:07;;;;;;;3.92;1.45;;;;;;;;;;6109954;23;20245;-89
2022/09/22 12:32:23;;;;;;;2.67;1.70;;;;;;;;;;6106472;23;20193;-88
2022/09/22 12:35:32;;;;;;;1.92;1.45;;;;;;;;;;6109770;23;20228;-88
2022/09/22 12:38:38;;;;;;;2.90;1.35;;;;;;;;;;6110606;23;20165;-89
2022/09/22 12:41:47;;;;;;;3.05;1.65;;;;;;;;;;6108320;23;20177;-91
2022/09/22 12:44:54;;;;;;;3.85;1.70;;;;;;;;;;6107067;23;20177;-90
2022/09/22 12:48:00;;;;;;;2.65;1.50;;;;;;;;;;6107495;23;20239;-89
2022/09/22 12:51:30;;;;;;;2.03;1.30;;;;;;;;;;6105506;23;20197;-92
2022/09/22 12:55:05;;;;;;;2.50;1.50;;;;;;;;;;6107421;23;20193;-89
2022/09/22 12:58:28;;;;;;;7.30;1.52;;;;;;;;;;6106504;23;20173;-89
2022/09/22 13:01:36;;;;;;;3.10;1.27;;;;;;;;;;6108353;23;20173;-91
2022/09/22 13:04:42;;;;;;;4.53;1.60;;;;;;;;;;6109291;23;20174;-89
2022/09/22 13:11:17;;;;;;;2.70;1.20;;;;;;;;;;6105107;23;20201;-90
2022/09/22 13:14:56;;;;;;;2.72;1.58;;;;;;;;;;6104462;23;20282;-90
2022/09/22 13:18:01;;;;;;;1.45;1.10;;;;;;;;;;5996210;23;20244;-91
2022/09/22 13:21:20;;;;;;;1.95;1.15;;;;;;;;;;6109839;23;20221;-90
2022/09/22 13:24:40;;;;;;;2.95;1.40;;;;;;;;;;6104944;23;20527;-90
2022/09/22 13:28:06;;;;;;;5.28;1.40;;;;;;;;;;6106714;23;20206;-90
2022/09/22 13:31:27;;;;;;;1.70;1.10;;;;;;;;;;6102806;23;20197;-90
2022/09/22 13:34:34;;;;;;;2.47;1.05;;;;;;;;;;6104829;23;20178;-88
2022/09/22 13:37:54;;;;;;;1.60;1.20;;;;;;;;;;6108015;23;20226;-89
2022/09/22 13:41:00;;;;;;;5.03;1.10;;;;;;;;;;6107141;23;20571;-89
2022/09/22 13:44:11;;;;;;;3.22;0.88;;;;;;;;;;6103996;23;20178;-88
2022/09/22 13:47:18;;;;;;;2.90;1.15;;;;;;;;;;6105848;23;20182;-91
2022/09/22 13:50:23;;;;;;;2.42;1.05;;;;;;;;;;6106967;23;20237;-91
2022/09/22 13:53:28;;;;;;;2.10;1.10;;;;;;;;;;6105493;23;20166;-91
2022/09/22 13:56:34;;;;;;;2.22;1.10;;;;;;;;;;6105796;23;20169;-91
2022/09/22 13:59:42;;;;;;;3.88;1.00;;;;;;;;;;6107018;23;20557;-91
2022/09/22 14:02:48;;;;;;;6.57;1.40;;;;;;;;;;6109021;23;20206;-90
2022/09/22 14:05:54;;;;;;;2.35;0.98;;;;;;;;;;6103372;23;20201;-88
2022/09/22 14:09:00;;;;;;;2.17;1.10;;;;;;;;;;6106246;23;20623;-92
2022/09/22 14:12:08;;;;;;;1.67;0.93;;;;;;;;;;6103391;23;20192;-90
2022/09/22 14:15:32;;;;;;;1.48;1.00;;;;;;;;;;6105020;23;20300;-88
2022/09/22 14:22:28;;;;;;;3.25;1.42;;;;;;;;;;6112259;23;20243;-91
2022/09/22 14:25:34;;;;;;;2.00;1.20;;;;;;;;;;6107403;23;20264;-89
2022/09/22 14:28:52;;;;;;;1.83;1.30;;;;;;;;;;6104901;23;20184;-90
2022/09/22 14:35:23;;;;;;;4.93;1.38;;;;;;;;;;6109127;23;20180;-90
2022/09/22 14:38:33;;;;;;;3.95;1.42;;;;;;;;;;6109643;23;20169;-90
2022/09/22 14:41:39;;;;;;;8.05;1.40;;;;;;;;;;6112077;23;20198;-89
2022/09/22 20:20:44;;;;;;;29.92;6.82;;;;;;;;;;6033504;23;20632;-88
2022/09/22 20:23:50;;;;;;;13.13;7.55;;;;;;;;;;6050495;23;20180;-89
2022/09/22 20:26:55;;;;;;;8.77;5.45;;;;;;;;;;6036218;23;20163;-89
2022/09/22 20:30:00;;;;;;;9.70;5.70;;;;;;;;;;6033997;23;20296;-92
2022/09/22 20:33:06;;;;;;;9.68;4.97;;;;;;;;;;6033730;23;20331;-89
2022/09/22 20:36:13;;;;;;;8.63;5.05;;;;;;;;;;6035468;23;20215;-90
2022/09/22 20:39:18;;;;;;;13.73;4.25;;;;;;;;;;6034749;23;20192;-89
2022/09/22 20:42:24;;;;;;;8.82;4.40;;;;;;;;;;6034135;23;20178;-90
2022/09/22 20:45:30;;;;;;;8.77;4.30;;;;;;;;;;6035394;23;20167;-88
2022/09/22 20:48:35;;;;;;;11.40;5.10;;;;;;;;;;6033639;23;20247;-89
2022/09/22 20:51:46;;;;;;;6.78;4.15;;;;;;;;;;6032083;23;20215;-89
2022/09/22 20:54:51;;;;;;;7.38;4.35;;;;;;;;;;6034354;23;20191;-86
2022/09/22 20:57:56;;;;;;;8.60;4.13;;;;;;;;;;6034794;23;20167;-91
2022/09/22 21:01:02;;;;;;;7.10;4.18;;;;;;;;;;6033027;23;20204;-91
2022/09/22 21:04:07;;;;;;;13.23;5.88;;;;;;;;;;6032683;23;20175;-88
2022/09/22 21:07:14;;;;;;;10.90;5.85;;;;;;;;;;6035681;23;20179;-90
2022/09/22 21:10:33;;;;;;;12.52;6.50;;;;;;;;;;6034534;23;20284;-87
2022/09/22 21:13:40;;;;;;;10.95;5.63;;;;;;;;;;6033821;23;20225;-90
2022/09/22 21:16:48;;;;;;;13.18;5.50;;;;;;;;;;6052886;23;20175;-90
2022/09/22 21:19:55;;;;;;;19.35;8.10;;;;;;;;;;6033398;23;20216;-91
2022/09/22 21:23:01;;;;;;;13.63;5.80;;;;;;;;;;6034146;23;20177;-89
2022/09/22 21:26:07;;;;;;;19.17;5.93;;;;;;;;;;6037062;23;20248;-88
2022/09/22 21:29:12;;;;;;;13.90;6.90;;;;;;;;;;6033571;23;20699;-89
2022/09/22 21:32:18;;;;;;;13.73;6.07;;;;;;;;;;6033185;23;20215;-92
2022/09/22 21:35:23;;;;;;;13.73;7.00;;;;;;;;;;6049953;23;20226;-90
2022/09/22 21:38:30;;;;;;;11.43;4.70;;;;;;;;;;6034230;23;20186;-89
2022/09/22 21:41:35;;;;;;;14.50;5.37;;;;;;;;;;6035184;23;20268;-91
2022/09/22 21:44:40;;;;;;;14.40;5.65;;;;;;;;;;6035144;23;20180;-90
2022/09/22 21:47:45;;;;;;;10.07;5.43;;;;;;;;;;6033825;23;20155;-90
2022/09/22 21:50:55;;;;;;;9.53;5.40;;;;;;;;;;6031713;23;20313;-90
2022/09/22 21:54:03;;;;;;;11.37;5.40;;;;;;;;;;6047881;23;20615;-87
2022/09/22 21:57:08;;;;;;;13.60;6.50;;;;;;;;;;6033596;23;20698;-90
2022/09/22 22:00:14;;;;;;;13.83;6.27;;;;;;;;;;6034383;23;20232;-89
2022/09/22 22:03:32;;;;;;;15.67;6.47;;;;;;;;;;6032611;23;20179;-90
2022/09/22 22:06:39;;;;;;;14.57;5.47;;;;;;;;;;6033830;23;20295;-91
2022/09/22 22:09:45;;;;;;;15.53;6.57;;;;;;;;;;6032176;23;20179;-90
2022/09/22 22:12:51;;;;;;;13.00;6.07;;;;;;;;;;6048466;23;20198;-90
2022/09/22 22:15:58;;;;;;;26.53;8.90;;;;;;;;;;6031039;23;20167;-89
2022/09/22 22:19:03;;;;;;;13.80;6.03;;;;;;;;;;6032281;23;20284;-90
2022/09/22 22:22:08;;;;;;;15.33;6.17;;;;;;;;;;6030610;23;20234;-89
2022/09/22 22:25:16;;;;;;;15.57;6.47;;;;;;;;;;6030788;23;20187;-88
2022/09/22 22:28:21;;;;;;;10.10;5.40;;;;;;;;;;6032090;23;20253;-90
2022/09/22 22:31:26;;;;;;;20.00;6.40;;;;;;;;;;6034693;23;20171;-89
2022/09/22 22:34:31;;;;;;;12.93;6.33;;;;;;;;;;6034219;23;20171;-87
2022/09/22 22:37:37;;;;;;;11.97;6.20;;;;;;;;;;6032997;23;20171;-89
2022/09/22 22:40:45;;;;;;;15.00;6.13;;;;;;;;;;6033257;23;20176;-89
2022/09/22 22:43:50;;;;;;;9.67;5.17;;;;;;;;;;6048079;23;20171;-91
2022/09/22 22:46:55;;;;;;;12.53;5.60;;;;;;;;;;6030267;23;20175;-89
2022/09/22 22:50:01;;;;;;;9.37;4.97;;;;;;;;;;6031306;23;20237;-88
2022/09/22 22:53:06;;;;;;;9.17;4.57;;;;;;;;;;6030594;23;20199;-88
2022/09/22 22:56:15;;;;;;;6.57;4.40;;;;;;;;;;6033965;23;20247;-89
2022/09/22 22:59:20;;;;;;;8.67;4.90;;;;;;;;;;6030473;23;20188;-89
2022/09/22 23:02:25;;;;;;;8.63;4.70;;;;;;;;;;6031196;23;20259;-87
2022/09/22 23:05:30;;;;;;;10.17;4.40;;;;;;;;;;6047953;23;20485;-91
2022/09/22 23:08:35;;;;;;;7.60;4.40;;;;;;;;;;6031804;23;20170;-91
2022/09/22 23:11:42;;;;;;;8.47;4.50;;;;;;;;;;6031046;23;20274;-91
2022/09/22 23:14:47;;;;;;;10.87;4.90;;;;;;;;;;6030652;23;20171;-89
2022/09/22 23:17:52;;;;;;;8.90;4.70;;;;;;;;;;6029642;23;20686;-90
2022/09/22 23:20:57;;;;;;;10.33;5.37;;;;;;;;;;6029083;23;20183;-90
2022/09/22 23:24:02;;;;;;;9.17;4.60;;;;;;;;;;6028689;23;20216;-91
2022/09/22 23:27:12;;;;;;;9.93;4.73;;;;;;;;;;6028520;23;20243;-88
2022/09/22 23:30:17;;;;;;;8.77;5.10;;;;;;;;;;6031205;23;20171;-90
2022/09/22 23:33:22;;;;;;;10.07;5.27;;;;;;;;;;6030663;23;20203;-90
2022/09/22 23:36:28;;;;;;;10.63;5.40;;;;;;;;;;6030483;23;20268;-90
2022/09/22 23:39:33;;;;;;;13.50;5.57;;;;;;;;;;6030137;23;20627;-90
2022/09/22 23:42:42;;;;;;;10.63;5.73;;;;;;;;;;6030507;23;20289;-90
2022/09/22 23:45:46;;;;;;;11.67;5.60;;;;;;;;;;6032907;23;20170;-90
2022/09/22 23:48:51;;;;;;;12.43;5.43;;;;;;;;;;6030584;23;20172;-90
2022/09/22 23:51:57;;;;;;;13.10;5.20;;;;;;;;;;6047509;23;20159;-91
2022/09/22 23:55:02;;;;;;;13.97;5.90;;;;;;;;;;6031303;23;20175;-90
2022/09/22 23:58:08;;;;;;;10.13;5.80;;;;;;;;;;6048194;23;20262;-90
